createdAt,value
2018-10-16T00:00:46.507Z,14.30
2018-10-16T00:03:14.736Z,13.03
2018-10-16T00:05:42.776Z,17.10
2018-10-16T00:08:10.865Z,13.80
2018-10-16T00:10:39.473Z,14.10
2018-10-16T00:13:09.069Z,16.10
2018-10-16T00:15:37.251Z,14.50
2018-10-16T00:18:05.999Z,14.07
2018-10-16T00:20:34.293Z,14.10
2018-10-16T00:23:02.552Z,14.63
2018-10-16T00:25:30.619Z,19.17
2018-10-16T00:27:58.696Z,13.30
2018-10-16T00:30:26.783Z,12.53
2018-10-16T00:32:54.872Z,14.10
2018-10-16T00:35:22.982Z,12.10
2018-10-16T00:37:51.068Z,13.07
2018-10-16T00:40:19.164Z,13.10
2018-10-16T00:42:47.239Z,13.83
2018-10-16T00:45:15.341Z,18.47
2018-10-16T00:47:43.428Z,14.40
2018-10-16T00:50:11.488Z,16.03
2018-10-16T00:52:39.752Z,16.73
2018-10-16T00:55:08.856Z,19.20
2018-10-16T00:57:37.151Z,15.63
2018-10-16T01:00:05.495Z,15.27
2018-10-16T01:02:33.593Z,17.40
2018-10-16T01:05:01.716Z,14.50
2018-10-16T01:07:29.856Z,16.07
2018-10-16T01:09:57.930Z,14.03
2018-10-16T01:12:26.024Z,17.53
2018-10-16T01:14:54.125Z,14.77
2018-10-16T01:17:22.264Z,15.43
2018-10-16T01:19:50.385Z,13.87
2018-10-16T01:22:18.495Z,17.60
2018-10-16T01:24:46.564Z,14.37
2018-10-16T01:27:14.684Z,13.83
2018-10-16T01:29:42.863Z,15.53
2018-10-16T01:32:10.959Z,15.20
2018-10-16T01:34:39.041Z,13.80
2018-10-16T01:37:07.154Z,15.50
2018-10-16T01:39:35.244Z,16.90
2018-10-16T01:42:03.331Z,17.60
2018-10-16T01:44:31.440Z,17.43
2018-10-16T01:46:59.624Z,17.07
2018-10-16T01:49:27.704Z,13.67
2018-10-16T01:51:55.796Z,14.93
2018-10-16T01:54:23.911Z,16.10
2018-10-16T01:56:51.987Z,13.73
2018-10-16T01:59:20.152Z,15.23
2018-10-16T02:01:48.258Z,14.60
2018-10-16T02:04:16.354Z,15.33
2018-10-16T02:06:44.433Z,16.80
2018-10-16T02:09:12.951Z,17.13
2018-10-16T02:11:41.071Z,17.70
2018-10-16T02:14:09.395Z,15.93
2018-10-16T02:16:37.514Z,18.63
2018-10-16T02:19:05.807Z,16.80
2018-10-16T02:21:33.889Z,17.57
2018-10-16T02:24:02.042Z,17.07
2018-10-16T02:26:30.097Z,15.05
2018-10-16T02:28:58.187Z,13.97
2018-10-16T02:31:26.668Z,14.70
2018-10-16T02:33:54.767Z,13.87
2018-10-16T02:36:22.827Z,15.13
2018-10-16T02:38:50.917Z,16.87
2018-10-16T02:41:19.007Z,14.33
2018-10-16T02:43:47.367Z,14.07
2018-10-16T02:46:15.479Z,14.27
2018-10-16T02:48:43.571Z,15.35
2018-10-16T02:51:11.659Z,18.15
2018-10-16T02:53:40.020Z,16.20
2018-10-16T02:56:08.456Z,14.70
2018-10-16T02:58:36.572Z,18.17
2018-10-16T03:01:05.112Z,16.05
2018-10-16T03:03:35.279Z,17.85
2018-10-16T03:06:03.509Z,14.28
2018-10-16T03:08:31.770Z,15.38
2018-10-16T03:10:59.882Z,19.23
2018-10-16T03:13:28.002Z,13.17
2018-10-16T03:15:56.092Z,15.88
2018-10-16T03:18:24.203Z,14.58
2018-10-16T03:20:52.279Z,17.85
2018-10-16T03:23:20.357Z,14.20
2018-10-16T03:25:48.457Z,16.40
2018-10-16T03:28:16.525Z,14.10
2018-10-16T03:30:44.643Z,13.70
2018-10-16T03:33:12.719Z,19.75
2018-10-16T03:35:40.907Z,16.50
2018-10-16T03:38:09.038Z,16.02
2018-10-16T03:40:37.153Z,16.70
2018-10-16T03:43:05.331Z,14.45
2018-10-16T03:45:33.420Z,15.80
2018-10-16T03:48:01.516Z,16.20
2018-10-16T03:50:29.609Z,13.15
2018-10-16T03:52:57.696Z,13.20
2018-10-16T03:55:25.819Z,12.45
2018-10-16T03:57:53.911Z,14.40
2018-10-16T04:00:22.016Z,14.83
2018-10-16T04:02:50.088Z,17.80
2018-10-16T04:05:18.223Z,12.93
2018-10-16T04:07:46.324Z,16.07
2018-10-16T04:10:14.416Z,17.52
2018-10-16T04:12:42.525Z,17.37
2018-10-16T04:15:11.465Z,17.37
2018-10-16T04:17:40.140Z,15.78
2018-10-16T04:20:08.223Z,16.65
2018-10-16T04:22:36.343Z,15.85
2018-10-16T04:25:04.444Z,12.97
2018-10-16T04:27:32.531Z,13.50
2018-10-16T04:30:00.609Z,14.63
2018-10-16T04:32:28.684Z,17.90
2018-10-16T04:34:56.851Z,17.93
2018-10-16T04:37:24.961Z,19.60
2018-10-16T04:39:53.227Z,17.65
2018-10-16T04:42:21.319Z,18.13
2018-10-16T04:44:49.434Z,19.10
2018-10-16T04:47:17.541Z,18.27
2018-10-16T04:49:45.641Z,19.07
2018-10-16T04:52:13.901Z,19.30
2018-10-16T04:54:41.995Z,20.20
2018-10-16T04:57:10.108Z,17.12
2018-10-16T04:59:38.196Z,17.98
2018-10-16T05:02:06.381Z,22.15
2018-10-16T05:04:34.524Z,19.23
2018-10-16T05:07:02.664Z,17.45
2018-10-16T05:09:30.752Z,22.13
2018-10-16T05:11:58.861Z,18.05
2018-10-16T05:14:27.121Z,18.05
2018-10-16T05:16:55.245Z,18.02
2018-10-16T05:19:23.306Z,17.42
2018-10-16T05:21:51.407Z,16.20
2018-10-16T05:24:19.502Z,17.43
2018-10-16T05:26:47.589Z,17.48
2018-10-16T05:29:15.711Z,15.08
2018-10-16T05:31:43.783Z,16.55
2018-10-16T05:34:11.894Z,16.37
2018-10-16T05:36:39.980Z,15.10
2018-10-16T05:39:10.254Z,16.00
2018-10-16T05:41:38.257Z,20.30
2018-10-16T05:44:06.395Z,18.17
2018-10-16T05:46:34.467Z,16.97
2018-10-16T05:49:04.304Z,18.95
2018-10-16T05:51:32.351Z,17.30
2018-10-16T05:54:00.436Z,22.13
2018-10-16T05:56:28.502Z,18.17
2018-10-16T05:58:56.591Z,20.90
2018-10-16T06:01:24.660Z,17.32
2018-10-16T06:03:52.730Z,21.45
2018-10-16T06:06:20.841Z,19.00
2018-10-16T06:08:48.921Z,18.50
2018-10-16T06:11:17.067Z,20.85
2018-10-16T06:13:45.168Z,21.70
2018-10-16T06:16:13.241Z,21.77
2018-10-16T06:18:41.456Z,23.15
2018-10-16T06:21:09.545Z,20.55
2018-10-16T06:23:37.712Z,21.30
2018-10-16T06:26:05.917Z,20.17
2018-10-16T06:28:34.115Z,22.70
2018-10-16T06:31:02.261Z,20.12
2018-10-16T06:33:31.611Z,20.10
2018-10-16T06:35:59.700Z,18.40
2018-10-16T06:38:27.843Z,17.57
2018-10-16T06:40:56.779Z,16.73
2018-10-16T06:43:24.814Z,22.00
2018-10-16T06:45:52.981Z,22.20
2018-10-16T06:48:21.292Z,18.80
2018-10-16T06:50:49.382Z,20.08
2018-10-16T06:53:17.665Z,20.90
2018-10-16T06:55:45.889Z,18.05
2018-10-16T06:58:18.318Z,20.27
2018-10-16T07:00:46.540Z,18.42
2018-10-16T07:03:14.828Z,18.50
2018-10-16T07:05:43.109Z,18.80
2018-10-16T07:08:11.325Z,19.20
2018-10-16T07:10:39.512Z,20.30
2018-10-16T07:13:07.773Z,17.92
2018-10-16T07:15:35.986Z,21.45
2018-10-16T07:18:04.403Z,18.20
2018-10-16T07:20:32.635Z,21.10
2018-10-16T07:23:00.743Z,18.77
2018-10-16T07:25:28.857Z,24.10
2018-10-16T07:27:57.067Z,22.97
2018-10-16T07:30:25.332Z,20.50
2018-10-16T07:32:53.533Z,19.90
2018-10-16T07:35:22.329Z,29.70
2018-10-16T07:37:51.032Z,24.70
2018-10-16T07:40:19.059Z,26.77
2018-10-16T07:42:47.188Z,23.77
2018-10-16T07:45:16.285Z,24.23
2018-10-16T07:47:44.372Z,27.97
2018-10-16T07:50:12.704Z,27.20
2018-10-16T07:52:40.820Z,27.93
2018-10-16T07:55:10.916Z,26.70
2018-10-16T07:57:39.106Z,25.83
2018-10-16T08:00:08.115Z,28.73
2018-10-16T08:02:36.680Z,32.60
2018-10-16T08:05:05.965Z,27.40
2018-10-16T08:07:34.462Z,24.87
2018-10-16T08:10:02.659Z,28.00
2018-10-16T08:12:30.892Z,36.97
2018-10-16T08:14:58.998Z,28.17
2018-10-16T08:17:27.198Z,28.13
2018-10-16T08:19:55.408Z,30.10
2018-10-16T08:22:23.643Z,25.83
2018-10-16T08:24:51.840Z,29.23
2018-10-16T08:27:20.048Z,25.10
2018-10-16T08:29:48.263Z,25.17
2018-10-16T08:32:16.495Z,25.13
2018-10-16T08:34:44.717Z,31.47
2018-10-16T08:37:17.948Z,32.57
2018-10-16T08:39:46.137Z,32.47
2018-10-16T08:43:22.661Z,24.53
2018-10-16T08:46:02.258Z,26.40
2018-10-16T08:48:41.938Z,28.70
2018-10-16T08:51:21.457Z,28.67
2018-10-16T08:53:49.547Z,28.60
2018-10-16T08:56:17.697Z,24.53
2018-10-16T08:58:46.394Z,25.47
2018-10-16T09:01:14.471Z,24.00
2018-10-16T09:03:42.555Z,28.70
2018-10-16T09:06:10.659Z,22.30
2018-10-16T09:08:38.767Z,23.70
2018-10-16T09:11:06.839Z,30.03
2018-10-16T09:13:35.038Z,23.93
2018-10-16T09:16:03.107Z,21.97
2018-10-16T09:18:31.180Z,27.40
2018-10-16T09:20:59.268Z,26.37
2018-10-16T09:23:27.321Z,24.30
2018-10-16T09:25:55.595Z,27.20
2018-10-16T09:28:23.664Z,25.27
2018-10-16T09:30:51.734Z,26.03
2018-10-16T09:33:19.819Z,24.80
2018-10-16T09:35:49.726Z,23.73
2018-10-16T09:38:20.479Z,20.63
2018-10-16T09:40:48.548Z,24.50
2018-10-16T09:43:16.626Z,23.07
2018-10-16T09:45:44.701Z,21.27
2018-10-16T09:48:12.789Z,21.57
2018-10-16T09:50:40.927Z,19.47
2018-10-16T09:53:09.044Z,19.57
2018-10-16T09:55:37.125Z,20.20
2018-10-16T09:58:05.228Z,19.33
2018-10-16T10:00:38.732Z,17.20
2018-10-16T10:03:06.823Z,18.43
2018-10-16T10:05:35.224Z,21.93
2018-10-16T10:08:03.300Z,16.67
2018-10-16T10:10:31.451Z,18.50
2018-10-16T10:12:59.552Z,17.97
2018-10-16T10:15:27.727Z,16.17
2018-10-16T10:17:55.816Z,18.23
2018-10-16T10:20:23.903Z,19.73
2018-10-16T10:22:52.016Z,16.13
2018-10-16T10:25:20.171Z,21.17
2018-10-16T10:27:48.204Z,22.43
2018-10-16T10:30:16.299Z,22.57
2018-10-16T10:32:45.085Z,19.00
2018-10-16T10:35:14.233Z,15.00
2018-10-16T10:37:42.607Z,16.97
2018-10-16T10:40:10.737Z,17.20
2018-10-16T10:42:38.855Z,18.00
2018-10-16T10:45:08.692Z,17.43
2018-10-16T10:47:37.460Z,14.23
2018-10-16T10:50:07.669Z,15.37
2018-10-16T10:52:35.647Z,18.63
2018-10-16T10:55:04.763Z,15.13
2018-10-16T10:57:32.820Z,14.70
2018-10-16T11:00:00.887Z,16.30
2018-10-16T11:02:28.985Z,12.87
2018-10-16T11:04:57.061Z,13.43
2018-10-16T11:07:25.183Z,11.93
2018-10-16T11:09:53.256Z,13.77
2018-10-16T11:12:21.331Z,11.87
2018-10-16T11:14:49.403Z,11.50
2018-10-16T11:17:17.507Z,15.70
2018-10-16T11:19:45.593Z,15.87
2018-10-16T11:22:13.684Z,16.23
2018-10-16T11:24:41.793Z,14.33
2018-10-16T11:27:09.921Z,13.87
2018-10-16T11:29:37.982Z,15.43
2018-10-16T11:32:06.063Z,17.23
2018-10-16T11:34:34.147Z,11.87
2018-10-16T11:37:02.297Z,12.83
2018-10-16T11:39:30.369Z,12.53
2018-10-16T11:41:58.484Z,13.90
2018-10-16T11:44:26.580Z,12.50
2018-10-16T11:46:55.140Z,12.97
2018-10-16T11:49:23.211Z,11.67
2018-10-16T11:51:51.309Z,11.40
2018-10-16T11:54:19.378Z,11.27
2018-10-16T11:56:47.460Z,11.53
2018-10-16T11:59:16.599Z,10.60
2018-10-16T12:01:45.182Z,12.40
2018-10-16T12:04:13.372Z,12.13
2018-10-16T12:06:41.525Z,12.67
2018-10-16T12:09:09.817Z,12.90
2018-10-16T12:11:38.076Z,9.80
2018-10-16T12:14:06.833Z,8.90
2018-10-16T12:17:43.037Z,11.57
2018-10-16T12:20:15.068Z,8.80
2018-10-16T12:22:43.135Z,8.50
2018-10-16T12:25:11.282Z,7.93
2018-10-16T12:27:39.299Z,8.13
2018-10-16T12:30:07.855Z,7.47
2018-10-16T12:32:36.321Z,8.07
2018-10-16T12:35:04.515Z,10.80
2018-10-16T12:37:32.719Z,6.60
2018-10-16T12:40:00.868Z,8.50
2018-10-16T12:42:28.942Z,6.80
2018-10-16T12:45:00.351Z,6.33
2018-10-16T12:47:28.364Z,7.23
2018-10-16T12:49:56.476Z,6.43
2018-10-16T12:52:24.554Z,8.67
2018-10-16T12:54:52.635Z,5.10
2018-10-16T12:57:20.809Z,6.20
2018-10-16T12:59:48.848Z,6.67
2018-10-16T13:02:16.912Z,5.90
2018-10-16T13:04:44.989Z,6.20
2018-10-16T13:07:18.063Z,5.90
2018-10-16T13:09:46.149Z,6.50
2018-10-16T13:12:14.479Z,6.20
2018-10-16T13:14:42.527Z,7.23
2018-10-16T13:17:10.675Z,6.90
2018-10-16T13:19:38.680Z,6.10
2018-10-16T13:22:06.794Z,9.90
2018-10-16T13:24:34.840Z,6.37
2018-10-16T13:27:02.896Z,5.93
2018-10-16T13:29:31.125Z,5.80
2018-10-16T13:31:59.029Z,7.00
2018-10-16T13:34:27.108Z,5.23
2018-10-16T13:36:55.268Z,6.83
2018-10-16T13:39:23.267Z,5.40
2018-10-16T13:41:51.323Z,5.50
2018-10-16T13:44:19.400Z,5.47
2018-10-16T13:46:47.480Z,4.30
2018-10-16T13:49:15.579Z,4.97
2018-10-16T13:51:43.650Z,5.00
2018-10-16T13:54:11.744Z,4.53
2018-10-16T13:56:39.886Z,6.03
2018-10-16T13:59:07.937Z,4.50
2018-10-16T14:01:36.009Z,6.53
2018-10-16T14:04:04.134Z,5.00
2018-10-16T14:06:32.160Z,3.97
2018-10-16T14:09:00.352Z,5.83
2018-10-16T14:11:28.433Z,3.83
2018-10-16T14:13:56.564Z,3.73
2018-10-16T14:16:24.628Z,3.93
2018-10-16T14:18:52.800Z,4.20
2018-10-16T14:21:20.949Z,4.93
2018-10-16T14:23:49.129Z,5.00
2018-10-16T14:26:17.266Z,4.47
2018-10-16T14:28:45.332Z,5.80
2018-10-16T14:31:13.423Z,6.37
2018-10-16T14:33:41.549Z,4.60
2018-10-16T14:36:09.613Z,4.43
2018-10-16T14:38:37.692Z,5.87
2018-10-16T14:41:05.817Z,5.03
2018-10-16T14:43:33.977Z,5.13
2018-10-16T14:46:02.728Z,4.70
2018-10-16T14:48:30.836Z,5.63
2018-10-16T14:50:58.990Z,6.10
2018-10-16T14:53:27.090Z,5.60
2018-10-16T14:55:55.248Z,4.77
2018-10-16T14:58:23.308Z,5.47
2018-10-16T15:00:51.452Z,7.93
2018-10-16T15:03:19.563Z,4.40
2018-10-16T15:05:47.635Z,4.50
2018-10-16T15:08:15.842Z,5.27
2018-10-16T15:10:43.781Z,5.80
2018-10-16T15:13:11.863Z,4.60
2018-10-16T15:15:39.961Z,4.43
2018-10-16T15:18:08.064Z,4.53
2018-10-16T15:20:36.147Z,5.23
2018-10-16T15:23:04.343Z,6.93
2018-10-16T15:25:32.417Z,4.87
2018-10-16T15:28:00.559Z,5.30
2018-10-16T15:30:28.600Z,5.77
2018-10-16T15:32:56.747Z,4.50
2018-10-16T15:35:24.798Z,5.80
2018-10-16T15:37:52.900Z,4.90
2018-10-16T15:40:20.942Z,5.17
2018-10-16T15:42:49.060Z,4.93
2018-10-16T15:45:17.140Z,5.10
2018-10-16T15:47:45.223Z,6.13
2018-10-16T15:50:13.522Z,6.93
2018-10-16T15:52:41.437Z,7.03
2018-10-16T15:55:10.648Z,5.97
2018-10-16T15:57:38.816Z,6.00
2018-10-16T16:00:10.020Z,5.77
2018-10-16T16:02:38.140Z,5.10
2018-10-16T16:05:06.557Z,6.20
2018-10-16T16:07:34.648Z,5.83
2018-10-16T16:10:03.060Z,5.83
2018-10-16T16:12:31.144Z,5.70
2018-10-16T16:14:59.140Z,8.17
2018-10-16T16:17:27.239Z,6.83
2018-10-16T16:19:55.351Z,6.63
2018-10-16T16:22:23.384Z,5.90
2018-10-16T16:24:51.455Z,6.67
2018-10-16T16:27:19.543Z,7.40
2018-10-16T16:29:47.625Z,7.30
2018-10-16T16:32:15.733Z,8.43
2018-10-16T16:34:43.813Z,8.13
2018-10-16T16:37:11.902Z,8.57
2018-10-16T16:39:39.991Z,8.53
2018-10-16T16:42:08.139Z,6.50
2018-10-16T16:44:36.255Z,6.60
2018-10-16T16:47:04.298Z,6.17
2018-10-16T16:49:32.340Z,9.03
2018-10-16T16:52:00.438Z,7.10
2018-10-16T16:54:28.548Z,7.10
2018-10-16T16:56:56.600Z,7.00
2018-10-16T16:59:24.700Z,12.53
2018-10-16T17:01:52.799Z,6.77
2018-10-16T17:04:20.904Z,8.33
2018-10-16T17:06:48.927Z,7.60
2018-10-16T17:09:17.011Z,9.90
2018-10-16T17:11:45.102Z,6.87
2018-10-16T17:14:13.309Z,7.83
2018-10-16T17:16:41.371Z,6.97
2018-10-16T17:19:09.455Z,6.30
2018-10-16T17:21:37.713Z,6.80
2018-10-16T17:24:05.951Z,8.70
2018-10-16T17:26:34.087Z,7.60
2018-10-16T17:29:02.259Z,8.80
2018-10-16T17:31:30.601Z,6.37
2018-10-16T17:33:58.868Z,7.50
2018-10-16T17:36:26.859Z,7.77
2018-10-16T17:38:54.952Z,7.53
2018-10-16T17:41:23.039Z,6.43
2018-10-16T17:43:51.123Z,9.47
2018-10-16T17:46:19.198Z,6.23
2018-10-16T17:48:47.389Z,7.03
2018-10-16T17:51:15.467Z,7.10
2018-10-16T17:53:43.549Z,6.50
2018-10-16T17:56:11.661Z,7.67
2018-10-16T17:58:39.688Z,8.40
2018-10-16T18:01:07.796Z,10.80
2018-10-16T18:03:35.876Z,8.20
2018-10-16T18:06:03.973Z,7.90
2018-10-16T18:08:32.181Z,6.10
2018-10-16T18:11:00.356Z,7.97
2018-10-16T18:13:28.455Z,7.07
2018-10-16T18:15:57.337Z,7.53
2018-10-16T18:18:27.896Z,7.83
2018-10-16T18:20:57.653Z,7.20
2018-10-16T18:26:02.454Z,7.17
2018-10-16T18:28:34.553Z,8.17
2018-10-16T18:31:03.039Z,7.87
2018-10-16T18:33:34.655Z,7.03
2018-10-16T18:38:46.527Z,9.27
2018-10-16T18:41:16.744Z,7.10
2018-10-16T18:43:46.301Z,6.37
2018-10-16T18:46:15.316Z,7.20
2018-10-16T18:48:45.556Z,7.23
2018-10-16T18:51:15.224Z,8.17
2018-10-16T18:53:44.513Z,6.67
2018-10-16T18:56:14.901Z,7.00
2018-10-16T18:58:44.228Z,8.00
2018-10-16T19:01:13.666Z,7.57
2018-10-16T19:03:47.499Z,6.40
2018-10-16T19:06:18.361Z,9.43
2018-10-16T19:08:50.718Z,7.73
2018-10-16T19:11:19.932Z,6.83
2018-10-16T19:13:48.884Z,6.80
2018-10-16T19:16:17.944Z,7.63
2018-10-16T19:18:47.106Z,7.20
2018-10-16T19:21:16.749Z,10.03
2018-10-16T19:23:47.369Z,6.93
2018-10-16T19:26:17.547Z,7.13
2018-10-16T19:28:47.736Z,7.90
2018-10-16T19:31:17.666Z,7.10
2018-10-16T19:33:47.764Z,7.03
2018-10-16T19:36:18.138Z,6.60
2018-10-16T19:38:46.571Z,9.13
2018-10-16T19:41:15.336Z,9.83
2018-10-16T19:43:46.321Z,7.10
2018-10-16T19:46:16.422Z,10.10
2018-10-16T19:48:45.120Z,8.60
2018-10-16T19:51:13.831Z,9.03
2018-10-16T19:53:43.245Z,8.03
2018-10-16T19:56:12.758Z,8.13
2018-10-16T19:58:42.835Z,8.77
2018-10-16T20:01:12.092Z,9.93
2018-10-16T20:03:43.006Z,6.77
2018-10-16T20:06:13.545Z,6.97
2018-10-16T20:08:43.174Z,7.70
2018-10-16T20:11:14.396Z,7.53
2018-10-16T20:13:43.013Z,10.63
2018-10-16T20:16:12.800Z,7.93
2018-10-16T20:18:42.185Z,8.40
2018-10-16T20:21:11.644Z,8.90
2018-10-16T20:26:23.327Z,9.73
2018-10-16T20:28:53.312Z,7.77
2018-10-16T20:31:21.548Z,7.80
2018-10-16T20:33:50.659Z,9.27
2018-10-16T20:36:21.297Z,8.63
2018-10-16T20:38:51.103Z,7.50
2018-10-16T20:41:21.975Z,8.40
2018-10-16T20:43:54.237Z,7.93
2018-10-16T20:46:25.169Z,7.87
2018-10-16T20:48:55.221Z,8.30
2018-10-16T20:51:26.200Z,10.97
2018-10-16T20:53:54.562Z,7.70
2018-10-16T20:56:25.645Z,8.50
2018-10-16T20:58:54.642Z,8.53
2018-10-16T21:01:23.910Z,8.57
2018-10-16T21:03:52.906Z,7.83
2018-10-16T21:06:22.929Z,10.10
2018-10-16T21:08:51.443Z,8.50
2018-10-16T21:11:20.648Z,7.47
2018-10-16T21:13:58.812Z,7.20
2018-10-16T21:16:28.011Z,10.37
2018-10-16T21:18:59.434Z,8.90
2018-10-16T21:21:29.403Z,8.30
2018-10-16T21:24:04.540Z,7.97
2018-10-16T21:26:34.128Z,8.00
2018-10-16T21:29:03.997Z,10.57
2018-10-16T21:31:33.123Z,8.00
2018-10-16T21:34:01.717Z,8.30
2018-10-16T21:36:30.647Z,8.73
2018-10-16T21:38:59.449Z,8.37
2018-10-16T21:41:28.052Z,7.93
2018-10-16T21:43:56.939Z,7.73
2018-10-16T21:46:30.590Z,8.70
2018-10-16T21:48:58.891Z,7.33
2018-10-16T21:51:35.892Z,7.63
2018-10-16T21:54:04.182Z,7.40
2018-10-16T21:56:32.492Z,8.40
2018-10-16T21:59:01.751Z,8.47
2018-10-16T22:01:35.089Z,8.63
2018-10-16T22:04:03.168Z,9.00
2018-10-16T22:06:31.291Z,8.60
2018-10-16T22:08:59.408Z,8.27
2018-10-16T22:11:27.480Z,8.83
2018-10-16T22:13:55.559Z,9.23
2018-10-16T22:16:23.799Z,8.80
2018-10-16T22:18:52.026Z,9.93
2018-10-16T22:21:20.123Z,9.37
2018-10-16T22:23:48.242Z,9.30
2018-10-16T22:26:16.304Z,8.90
2018-10-16T22:28:44.376Z,9.27
2018-10-16T22:31:12.500Z,9.50
2018-10-16T22:33:40.676Z,10.73
2018-10-16T22:36:08.785Z,8.73
2018-10-16T22:38:36.876Z,8.23
2018-10-16T22:41:05.397Z,7.97
2018-10-16T22:43:33.411Z,10.67
2018-10-16T22:46:01.492Z,7.83
2018-10-16T22:48:29.567Z,8.73
2018-10-16T22:50:57.645Z,9.30
2018-10-16T22:53:25.748Z,9.17
2018-10-16T22:55:53.833Z,9.50
2018-10-16T22:58:21.928Z,8.83
2018-10-16T23:00:49.986Z,9.33
2018-10-16T23:03:18.109Z,8.80
2018-10-16T23:05:46.162Z,11.20
2018-10-16T23:08:14.254Z,9.43
2018-10-16T23:10:42.357Z,8.80
2018-10-16T23:13:10.606Z,9.40
2018-10-16T23:15:38.573Z,10.43
2018-10-16T23:18:06.633Z,9.20
2018-10-16T23:20:34.776Z,8.77
2018-10-16T23:23:02.917Z,13.67
2018-10-16T23:25:30.975Z,11.10
2018-10-16T23:27:59.061Z,11.50
2018-10-16T23:30:27.155Z,13.00
2018-10-16T23:32:55.211Z,11.13
2018-10-16T23:35:23.315Z,10.60
2018-10-16T23:37:51.415Z,11.33
2018-10-16T23:40:19.480Z,13.97
2018-10-16T23:42:47.547Z,16.50
2018-10-16T23:45:15.629Z,19.03
2018-10-16T23:47:43.703Z,18.33
2018-10-16T23:50:11.810Z,13.50
2018-10-16T23:52:39.906Z,11.10
2018-10-16T23:55:09.091Z,13.97
2018-10-16T23:57:37.167Z,11.37
